sensor_id;sensor_type;location;lat;lon;timestamp;P1;durP1;ratioP1;P2;durP2;ratioP2
19747;SDS011;10032;51.386;12.516;2022-11-20T00:01:42;25.20;;;15.30;;
19747;SDS011;10032;51.386;12.516;2022-11-20T00:04:08;25.13;;;15.13;;
19747;SDS011;10032;51.386;12.516;2022-11-20T00:06:35;24.40;;;15.60;;
19747;SDS011;10032;51.386;12.516;2022-11-20T00:09:00;22.40;;;14.83;;
19747;SDS011;10032;51.386;12.516;2022-11-20T00:11:27;26.80;;;14.63;;
19747;SDS011;10032;51.386;12.516;2022-11-20T00:13:56;21.67;;;13.37;;
19747;SDS011;10032;51.386;12.516;2022-11-20T00:16:23;23.77;;;15.07;;
19747;SDS011;10032;51.386;12.516;2022-11-20T00:18:50;23.70;;;14.17;;
19747;SDS011;10032;51.386;12.516;2022-11-20T00:21:20;23.27;;;14.80;;
19747;SDS011;10032;51.386;12.516;2022-11-20T00:23:48;25.80;;;14.27;;
19747;SDS011;10032;51.386;12.516;2022-11-20T00:26:14;27.17;;;15.23;;
19747;SDS011;10032;51.386;12.516;2022-11-20T00:28:42;25.67;;;15.77;;
19747;SDS011;10032;51.386;12.516;2022-11-20T00:31:12;25.57;;;14.87;;
19747;SDS011;10032;51.386;12.516;2022-11-20T00:33:39;23.67;;;15.10;;
19747;SDS011;10032;51.386;12.516;2022-11-20T00:36:10;24.03;;;15.33;;
19747;SDS011;10032;51.386;12.516;2022-11-20T00:38:37;23.27;;;15.03;;
19747;SDS011;10032;51.386;12.516;2022-11-20T00:41:07;27.03;;;15.83;;
19747;SDS011;10032;51.386;12.516;2022-11-20T00:43:34;28.37;;;17.00;;
19747;SDS011;10032;51.386;12.516;2022-11-20T00:46:04;25.47;;;14.77;;
19747;SDS011;10032;51.386;12.516;2022-11-20T00:48:35;27.17;;;14.97;;
19747;SDS011;10032;51.386;12.516;2022-11-20T00:51:00;24.13;;;14.40;;
19747;SDS011;10032;51.386;12.516;2022-11-20T00:53:26;23.73;;;14.80;;
19747;SDS011;10032;51.386;12.516;2022-11-20T00:55:58;22.80;;;14.20;;
19747;SDS011;10032;51.386;12.516;2022-11-20T00:58:29;22.17;;;13.73;;
19747;SDS011;10032;51.386;12.516;2022-11-20T01:01:03;24.17;;;14.20;;
19747;SDS011;10032;51.386;12.516;2022-11-20T01:03:34;22.77;;;14.00;;
19747;SDS011;10032;51.386;12.516;2022-11-20T01:06:02;24.57;;;13.77;;
19747;SDS011;10032;51.386;12.516;2022-11-20T01:08:31;23.77;;;14.17;;
19747;SDS011;10032;51.386;12.516;2022-11-20T01:10:58;25.07;;;15.57;;
19747;SDS011;10032;51.386;12.516;2022-11-20T01:13:28;23.67;;;13.83;;
19747;SDS011;10032;51.386;12.516;2022-11-20T01:18:34;23.90;;;15.20;;
19747;SDS011;10032;51.386;12.516;2022-11-20T01:21:01;22.40;;;14.30;;
19747;SDS011;10032;51.386;12.516;2022-11-20T01:23:32;24.27;;;15.10;;
19747;SDS011;10032;51.386;12.516;2022-11-20T01:25:59;25.73;;;15.47;;
19747;SDS011;10032;51.386;12.516;2022-11-20T01:28:26;22.93;;;14.60;;
19747;SDS011;10032;51.386;12.516;2022-11-20T01:30:52;24.80;;;14.83;;
19747;SDS011;10032;51.386;12.516;2022-11-20T01:33:17;24.10;;;14.10;;
19747;SDS011;10032;51.386;12.516;2022-11-20T01:35:42;28.13;;;14.50;;
19747;SDS011;10032;51.386;12.516;2022-11-20T01:38:08;23.07;;;13.27;;
19747;SDS011;10032;51.386;12.516;2022-11-20T01:40:33;24.07;;;13.77;;
19747;SDS011;10032;51.386;12.516;2022-11-20T01:43:11;24.57;;;13.93;;
19747;SDS011;10032;51.386;12.516;2022-11-20T01:46:00;21.40;;;14.20;;
19747;SDS011;10032;51.386;12.516;2022-11-20T01:48:28;23.07;;;13.83;;
19747;SDS011;10032;51.386;12.516;2022-11-20T01:50:58;24.67;;;14.47;;
19747;SDS011;10032;51.386;12.516;2022-11-20T01:53:27;26.00;;;13.70;;
19747;SDS011;10032;51.386;12.516;2022-11-20T01:55:57;22.73;;;13.93;;
19747;SDS011;10032;51.386;12.516;2022-11-20T01:58:27;23.87;;;13.77;;
19747;SDS011;10032;51.386;12.516;2022-11-20T02:00:57;21.10;;;12.20;;
19747;SDS011;10032;51.386;12.516;2022-11-20T02:03:23;21.57;;;12.50;;
19747;SDS011;10032;51.386;12.516;2022-11-20T02:08:37;24.00;;;13.47;;
19747;SDS011;10032;51.386;12.516;2022-11-20T02:11:03;25.53;;;13.67;;
19747;SDS011;10032;51.386;12.516;2022-11-20T02:13:29;25.47;;;13.97;;
19747;SDS011;10032;51.386;12.516;2022-11-20T02:18:53;21.87;;;13.27;;
19747;SDS011;10032;51.386;12.516;2022-11-20T02:21:27;23.43;;;14.30;;
19747;SDS011;10032;51.386;12.516;2022-11-20T02:27:18;22.10;;;13.20;;
19747;SDS011;10032;51.386;12.516;2022-11-20T02:32:21;24.37;;;14.10;;
19747;SDS011;10032;51.386;12.516;2022-11-20T02:34:50;22.53;;;13.67;;
19747;SDS011;10032;51.386;12.516;2022-11-20T02:37:15;23.40;;;13.50;;
19747;SDS011;10032;51.386;12.516;2022-11-20T02:39:41;20.40;;;12.57;;
19747;SDS011;10032;51.386;12.516;2022-11-20T02:42:09;21.90;;;13.13;;
19747;SDS011;10032;51.386;12.516;2022-11-20T02:44:35;20.17;;;12.67;;
19747;SDS011;10032;51.386;12.516;2022-11-20T02:47:00;22.80;;;13.07;;
19747;SDS011;10032;51.386;12.516;2022-11-20T02:49:26;22.07;;;13.47;;
19747;SDS011;10032;51.386;12.516;2022-11-20T02:51:51;20.73;;;11.93;;
19747;SDS011;10032;51.386;12.516;2022-11-20T02:54:16;21.73;;;13.60;;
19747;SDS011;10032;51.386;12.516;2022-11-20T02:56:42;22.03;;;12.90;;
19747;SDS011;10032;51.386;12.516;2022-11-20T02:59:08;23.77;;;13.77;;
19747;SDS011;10032;51.386;12.516;2022-11-20T03:01:34;24.23;;;13.47;;
19747;SDS011;10032;51.386;12.516;2022-11-20T03:03:59;24.47;;;13.23;;
19747;SDS011;10032;51.386;12.516;2022-11-20T03:06:25;22.97;;;13.20;;
19747;SDS011;10032;51.386;12.516;2022-11-20T03:08:50;19.97;;;11.33;;
19747;SDS011;10032;51.386;12.516;2022-11-20T03:11:15;22.70;;;12.67;;
19747;SDS011;10032;51.386;12.516;2022-11-20T03:13:42;22.90;;;13.23;;
19747;SDS011;10032;51.386;12.516;2022-11-20T03:16:17;20.57;;;12.97;;
19747;SDS011;10032;51.386;12.516;2022-11-20T03:18:45;23.97;;;13.30;;
19747;SDS011;10032;51.386;12.516;2022-11-20T03:21:11;23.17;;;13.03;;
19747;SDS011;10032;51.386;12.516;2022-11-20T03:23:38;22.53;;;13.13;;
19747;SDS011;10032;51.386;12.516;2022-11-20T03:26:11;21.97;;;13.60;;
19747;SDS011;10032;51.386;12.516;2022-11-20T03:28:39;20.17;;;12.07;;
19747;SDS011;10032;51.386;12.516;2022-11-20T03:31:10;22.40;;;12.93;;
19747;SDS011;10032;51.386;12.516;2022-11-20T03:33:38;19.90;;;12.63;;
19747;SDS011;10032;51.386;12.516;2022-11-20T03:36:05;22.80;;;12.17;;
19747;SDS011;10032;51.386;12.516;2022-11-20T03:38:32;27.23;;;13.83;;
19747;SDS011;10032;51.386;12.516;2022-11-20T03:41:05;23.33;;;13.73;;
19747;SDS011;10032;51.386;12.516;2022-11-20T03:43:33;21.13;;;12.60;;
19747;SDS011;10032;51.386;12.516;2022-11-20T03:45:58;30.07;;;15.23;;
19747;SDS011;10032;51.386;12.516;2022-11-20T03:48:24;24.27;;;13.43;;
19747;SDS011;10032;51.386;12.516;2022-11-20T03:50:51;27.63;;;13.30;;
19747;SDS011;10032;51.386;12.516;2022-11-20T03:53:17;24.13;;;12.90;;
19747;SDS011;10032;51.386;12.516;2022-11-20T03:55:43;27.07;;;13.63;;
19747;SDS011;10032;51.386;12.516;2022-11-20T03:58:08;24.70;;;14.60;;
19747;SDS011;10032;51.386;12.516;2022-11-20T04:00:34;25.13;;;14.80;;
19747;SDS011;10032;51.386;12.516;2022-11-20T04:03:00;21.23;;;13.27;;
19747;SDS011;10032;51.386;12.516;2022-11-20T04:05:26;26.13;;;15.00;;
19747;SDS011;10032;51.386;12.516;2022-11-20T04:07:52;26.63;;;13.60;;
19747;SDS011;10032;51.386;12.516;2022-11-20T04:10:17;27.67;;;15.30;;
19747;SDS011;10032;51.386;12.516;2022-11-20T04:12:43;24.37;;;15.37;;
19747;SDS011;10032;51.386;12.516;2022-11-20T04:15:08;26.53;;;15.33;;
19747;SDS011;10032;51.386;12.516;2022-11-20T04:17:34;30.37;;;16.27;;
19747;SDS011;10032;51.386;12.516;2022-11-20T04:20:02;27.07;;;15.37;;
19747;SDS011;10032;51.386;12.516;2022-11-20T04:22:27;27.87;;;15.20;;
19747;SDS011;10032;51.386;12.516;2022-11-20T04:24:53;27.00;;;15.03;;
19747;SDS011;10032;51.386;12.516;2022-11-20T04:27:18;27.60;;;14.87;;
19747;SDS011;10032;51.386;12.516;2022-11-20T04:29:43;31.47;;;17.43;;
19747;SDS011;10032;51.386;12.516;2022-11-20T04:32:09;24.97;;;15.27;;
19747;SDS011;10032;51.386;12.516;2022-11-20T04:34:34;27.73;;;15.33;;
19747;SDS011;10032;51.386;12.516;2022-11-20T04:37:00;30.13;;;15.77;;
19747;SDS011;10032;51.386;12.516;2022-11-20T04:39:26;28.30;;;15.43;;
19747;SDS011;10032;51.386;12.516;2022-11-20T04:41:51;28.67;;;15.27;;
19747;SDS011;10032;51.386;12.516;2022-11-20T04:44:36;23.83;;;14.40;;
19747;SDS011;10032;51.386;12.516;2022-11-20T04:47:02;27.57;;;15.47;;
19747;SDS011;10032;51.386;12.516;2022-11-20T04:49:27;32.67;;;16.33;;
19747;SDS011;10032;51.386;12.516;2022-11-20T04:51:53;26.07;;;14.97;;
19747;SDS011;10032;51.386;12.516;2022-11-20T04:54:19;28.00;;;15.40;;
19747;SDS011;10032;51.386;12.516;2022-11-20T04:56:47;25.53;;;15.03;;
19747;SDS011;10032;51.386;12.516;2022-11-20T04:59:12;27.83;;;15.37;;
19747;SDS011;10032;51.386;12.516;2022-11-20T05:01:38;28.17;;;14.97;;
19747;SDS011;10032;51.386;12.516;2022-11-20T05:04:04;26.83;;;14.60;;
19747;SDS011;10032;51.386;12.516;2022-11-20T05:06:30;28.77;;;15.20;;
19747;SDS011;10032;51.386;12.516;2022-11-20T05:08:58;33.00;;;16.47;;
19747;SDS011;10032;51.386;12.516;2022-11-20T05:11:24;25.80;;;14.70;;
19747;SDS011;10032;51.386;12.516;2022-11-20T05:13:50;31.80;;;18.00;;
19747;SDS011;10032;51.386;12.516;2022-11-20T05:16:17;25.47;;;15.43;;
19747;SDS011;10032;51.386;12.516;2022-11-20T05:18:44;33.23;;;17.73;;
19747;SDS011;10032;51.386;12.516;2022-11-20T05:21:10;28.93;;;15.63;;
19747;SDS011;10032;51.386;12.516;2022-11-20T05:23:36;28.07;;;16.17;;
19747;SDS011;10032;51.386;12.516;2022-11-20T05:26:03;32.37;;;15.50;;
19747;SDS011;10032;51.386;12.516;2022-11-20T05:28:30;29.50;;;15.83;;
19747;SDS011;10032;51.386;12.516;2022-11-20T05:31:03;29.90;;;16.00;;
19747;SDS011;10032;51.386;12.516;2022-11-20T05:33:30;28.07;;;15.57;;
19747;SDS011;10032;51.386;12.516;2022-11-20T05:35:57;27.67;;;15.27;;
19747;SDS011;10032;51.386;12.516;2022-11-20T05:38:23;26.63;;;15.33;;
19747;SDS011;10032;51.386;12.516;2022-11-20T05:40:49;29.33;;;15.37;;
19747;SDS011;10032;51.386;12.516;2022-11-20T05:43:14;32.67;;;15.87;;
19747;SDS011;10032;51.386;12.516;2022-11-20T05:45:39;23.87;;;14.77;;
19747;SDS011;10032;51.386;12.516;2022-11-20T05:48:05;28.10;;;15.47;;
19747;SDS011;10032;51.386;12.516;2022-11-20T05:50:30;26.73;;;14.80;;
19747;SDS011;10032;51.386;12.516;2022-11-20T05:52:57;28.47;;;15.20;;
19747;SDS011;10032;51.386;12.516;2022-11-20T05:55:24;29.33;;;16.03;;
19747;SDS011;10032;51.386;12.516;2022-11-20T05:57:49;26.17;;;15.77;;
19747;SDS011;10032;51.386;12.516;2022-11-20T06:00:15;31.27;;;15.73;;
19747;SDS011;10032;51.386;12.516;2022-11-20T06:02:41;27.97;;;15.27;;
19747;SDS011;10032;51.386;12.516;2022-11-20T06:05:06;29.93;;;16.40;;
19747;SDS011;10032;51.386;12.516;2022-11-20T06:07:32;26.70;;;15.93;;
19747;SDS011;10032;51.386;12.516;2022-11-20T06:09:58;23.47;;;14.10;;
19747;SDS011;10032;51.386;12.516;2022-11-20T06:12:23;27.00;;;14.93;;
19747;SDS011;10032;51.386;12.516;2022-11-20T06:14:49;29.20;;;15.13;;
19747;SDS011;10032;51.386;12.516;2022-11-20T06:17:14;25.10;;;15.23;;
19747;SDS011;10032;51.386;12.516;2022-11-20T06:19:39;28.93;;;14.70;;
19747;SDS011;10032;51.386;12.516;2022-11-20T06:22:05;25.50;;;14.67;;
19747;SDS011;10032;51.386;12.516;2022-11-20T06:24:30;27.83;;;15.57;;
19747;SDS011;10032;51.386;12.516;2022-11-20T06:26:56;27.43;;;16.10;;
19747;SDS011;10032;51.386;12.516;2022-11-20T06:29:21;24.87;;;15.97;;
19747;SDS011;10032;51.386;12.516;2022-11-20T06:31:46;29.83;;;16.17;;
19747;SDS011;10032;51.386;12.516;2022-11-20T06:34:12;28.13;;;16.20;;
19747;SDS011;10032;51.386;12.516;2022-11-20T06:36:37;26.07;;;15.10;;
19747;SDS011;10032;51.386;12.516;2022-11-20T06:39:03;26.93;;;13.57;;
19747;SDS011;10032;51.386;12.516;2022-11-20T06:41:28;26.13;;;14.87;;
19747;SDS011;10032;51.386;12.516;2022-11-20T06:43:54;21.60;;;13.80;;
19747;SDS011;10032;51.386;12.516;2022-11-20T06:46:19;24.53;;;14.83;;
19747;SDS011;10032;51.386;12.516;2022-11-20T06:48:45;31.00;;;15.70;;
19747;SDS011;10032;51.386;12.516;2022-11-20T06:51:12;31.00;;;16.07;;
19747;SDS011;10032;51.386;12.516;2022-11-20T06:53:38;30.23;;;16.27;;
19747;SDS011;10032;51.386;12.516;2022-11-20T06:56:03;23.73;;;13.83;;
19747;SDS011;10032;51.386;12.516;2022-11-20T06:58:30;23.83;;;13.93;;
19747;SDS011;10032;51.386;12.516;2022-11-20T07:01:00;25.80;;;14.80;;
19747;SDS011;10032;51.386;12.516;2022-11-20T07:03:27;28.10;;;15.40;;
19747;SDS011;10032;51.386;12.516;2022-11-20T07:05:56;26.67;;;15.90;;
19747;SDS011;10032;51.386;12.516;2022-11-20T07:08:23;27.30;;;14.57;;
19747;SDS011;10032;51.386;12.516;2022-11-20T07:10:49;25.13;;;15.53;;
19747;SDS011;10032;51.386;12.516;2022-11-20T07:13:14;32.23;;;16.50;;
19747;SDS011;10032;51.386;12.516;2022-11-20T07:15:40;28.07;;;14.93;;
19747;SDS011;10032;51.386;12.516;2022-11-20T07:18:05;25.17;;;14.20;;
19747;SDS011;10032;51.386;12.516;2022-11-20T07:20:30;29.87;;;14.60;;
19747;SDS011;10032;51.386;12.516;2022-11-20T07:22:56;22.07;;;13.43;;
19747;SDS011;10032;51.386;12.516;2022-11-20T07:25:23;25.43;;;14.27;;
19747;SDS011;10032;51.386;12.516;2022-11-20T07:27:49;28.70;;;14.43;;
19747;SDS011;10032;51.386;12.516;2022-11-20T07:30:17;28.17;;;16.07;;
19747;SDS011;10032;51.386;12.516;2022-11-20T07:32:46;26.10;;;16.00;;
19747;SDS011;10032;51.386;12.516;2022-11-20T07:35:12;29.57;;;16.67;;
19747;SDS011;10032;51.386;12.516;2022-11-20T07:37:38;44.07;;;24.83;;
19747;SDS011;10032;51.386;12.516;2022-11-20T07:40:03;37.90;;;21.60;;
19747;SDS011;10032;51.386;12.516;2022-11-20T07:42:29;30.53;;;16.60;;
19747;SDS011;10032;51.386;12.516;2022-11-20T07:44:54;32.67;;;18.03;;
19747;SDS011;10032;51.386;12.516;2022-11-20T07:47:20;27.87;;;15.43;;
19747;SDS011;10032;51.386;12.516;2022-11-20T07:49:45;26.93;;;16.10;;
19747;SDS011;10032;51.386;12.516;2022-11-20T07:52:11;28.53;;;15.53;;
19747;SDS011;10032;51.386;12.516;2022-11-20T07:54:36;26.77;;;15.33;;
19747;SDS011;10032;51.386;12.516;2022-11-20T07:57:02;28.83;;;16.60;;
19747;SDS011;10032;51.386;12.516;2022-11-20T07:59:28;30.40;;;17.17;;
19747;SDS011;10032;51.386;12.516;2022-11-20T08:01:53;32.03;;;16.47;;
19747;SDS011;10032;51.386;12.516;2022-11-20T08:04:19;33.30;;;16.67;;
19747;SDS011;10032;51.386;12.516;2022-11-20T08:06:45;32.60;;;16.37;;
19747;SDS011;10032;51.386;12.516;2022-11-20T08:09:10;26.50;;;15.60;;
19747;SDS011;10032;51.386;12.516;2022-11-20T08:11:35;27.23;;;16.17;;
19747;SDS011;10032;51.386;12.516;2022-11-20T08:14:19;28.57;;;15.57;;
19747;SDS011;10032;51.386;12.516;2022-11-20T08:16:47;32.27;;;17.43;;
19747;SDS011;10032;51.386;12.516;2022-11-20T08:19:14;25.83;;;15.33;;
19747;SDS011;10032;51.386;12.516;2022-11-20T08:21:41;28.73;;;16.10;;
19747;SDS011;10032;51.386;12.516;2022-11-20T08:24:07;28.73;;;15.43;;
19747;SDS011;10032;51.386;12.516;2022-11-20T08:26:33;30.03;;;16.13;;
19747;SDS011;10032;51.386;12.516;2022-11-20T08:28:59;27.03;;;14.90;;
19747;SDS011;10032;51.386;12.516;2022-11-20T08:31:25;31.03;;;16.33;;
19747;SDS011;10032;51.386;12.516;2022-11-20T08:33:52;27.40;;;16.13;;
19747;SDS011;10032;51.386;12.516;2022-11-20T08:36:17;29.47;;;16.00;;
19747;SDS011;10032;51.386;12.516;2022-11-20T08:38:50;26.77;;;15.80;;
19747;SDS011;10032;51.386;12.516;2022-11-20T08:41:17;27.47;;;15.43;;
19747;SDS011;10032;51.386;12.516;2022-11-20T08:43:49;30.67;;;15.57;;
19747;SDS011;10032;51.386;12.516;2022-11-20T08:46:15;29.70;;;16.60;;
19747;SDS011;10032;51.386;12.516;2022-11-20T08:48:41;27.60;;;15.23;;
19747;SDS011;10032;51.386;12.516;2022-11-20T08:51:07;28.87;;;15.57;;
19747;SDS011;10032;51.386;12.516;2022-11-20T08:53:33;32.67;;;17.33;;
19747;SDS011;10032;51.386;12.516;2022-11-20T08:55:58;31.43;;;16.20;;
19747;SDS011;10032;51.386;12.516;2022-11-20T08:58:24;27.80;;;16.17;;
19747;SDS011;10032;51.386;12.516;2022-11-20T09:00:50;32.00;;;16.83;;
19747;SDS011;10032;51.386;12.516;2022-11-20T09:03:15;26.47;;;15.40;;
19747;SDS011;10032;51.386;12.516;2022-11-20T09:05:41;25.07;;;15.13;;
19747;SDS011;10032;51.386;12.516;2022-11-20T09:08:07;26.50;;;14.07;;
19747;SDS011;10032;51.386;12.516;2022-11-20T09:10:33;28.37;;;14.77;;
19747;SDS011;10032;51.386;12.516;2022-11-20T09:12:58;27.60;;;14.70;;
19747;SDS011;10032;51.386;12.516;2022-11-20T09:15:24;26.57;;;15.57;;
19747;SDS011;10032;51.386;12.516;2022-11-20T09:17:51;26.40;;;15.40;;
19747;SDS011;10032;51.386;12.516;2022-11-20T09:20:21;27.70;;;14.70;;
19747;SDS011;10032;51.386;12.516;2022-11-20T09:22:46;25.07;;;14.93;;
19747;SDS011;10032;51.386;12.516;2022-11-20T09:25:12;28.20;;;15.10;;
19747;SDS011;10032;51.386;12.516;2022-11-20T09:27:38;23.90;;;14.20;;
19747;SDS011;10032;51.386;12.516;2022-11-20T09:30:03;25.27;;;15.27;;
19747;SDS011;10032;51.386;12.516;2022-11-20T09:32:29;24.60;;;14.10;;
19747;SDS011;10032;51.386;12.516;2022-11-20T09:34:54;25.63;;;13.67;;
19747;SDS011;10032;51.386;12.516;2022-11-20T09:37:20;23.33;;;13.03;;
19747;SDS011;10032;51.386;12.516;2022-11-20T09:39:45;21.47;;;13.53;;
19747;SDS011;10032;51.386;12.516;2022-11-20T09:47:08;22.53;;;12.90;;
19747;SDS011;10032;51.386;12.516;2022-11-20T09:55:21;22.47;;;12.73;;
19747;SDS011;10032;51.386;12.516;2022-11-20T09:57:48;26.43;;;13.13;;
19747;SDS011;10032;51.386;12.516;2022-11-20T10:00:16;25.53;;;14.10;;
19747;SDS011;10032;51.386;12.516;2022-11-20T10:02:53;23.00;;;13.00;;
19747;SDS011;10032;51.386;12.516;2022-11-20T10:05:35;23.13;;;13.43;;
19747;SDS011;10032;51.386;12.516;2022-11-20T10:19:08;20.30;;;10.73;;
19747;SDS011;10032;51.386;12.516;2022-11-20T10:21:59;22.07;;;12.57;;
19747;SDS011;10032;51.386;12.516;2022-11-20T10:29:58;20.17;;;11.93;;
19747;SDS011;10032;51.386;12.516;2022-11-20T10:32:30;18.93;;;11.17;;
19747;SDS011;10032;51.386;12.516;2022-11-20T10:35:02;20.53;;;11.93;;
19747;SDS011;10032;51.386;12.516;2022-11-20T10:37:41;19.13;;;10.90;;
19747;SDS011;10032;51.386;12.516;2022-11-20T10:43:13;18.00;;;9.83;;
19747;SDS011;10032;51.386;12.516;2022-11-20T10:45:46;15.47;;;8.83;;
19747;SDS011;10032;51.386;12.516;2022-11-20T10:48:24;17.83;;;9.83;;
19747;SDS011;10032;51.386;12.516;2022-11-20T10:53:36;19.20;;;9.70;;
19747;SDS011;10032;51.386;12.516;2022-11-20T10:56:46;16.33;;;9.40;;
19747;SDS011;10032;51.386;12.516;2022-11-20T10:59:20;15.43;;;9.33;;
19747;SDS011;10032;51.386;12.516;2022-11-20T11:02:00;22.27;;;10.73;;
19747;SDS011;10032;51.386;12.516;2022-11-20T11:06:58;14.73;;;8.30;;
19747;SDS011;10032;51.386;12.516;2022-11-20T11:09:37;18.50;;;10.43;;
19747;SDS011;10032;51.386;12.516;2022-11-20T11:12:09;15.50;;;9.03;;
19747;SDS011;10032;51.386;12.516;2022-11-20T11:14:42;16.97;;;8.80;;
19747;SDS011;10032;51.386;12.516;2022-11-20T11:17:18;15.13;;;8.30;;
19747;SDS011;10032;51.386;12.516;2022-11-20T11:25:24;14.77;;;7.60;;
19747;SDS011;10032;51.386;12.516;2022-11-20T11:30:29;16.70;;;9.63;;
19747;SDS011;10032;51.386;12.516;2022-11-20T11:33:05;15.20;;;9.50;;
19747;SDS011;10032;51.386;12.516;2022-11-20T11:35:38;13.30;;;7.97;;
19747;SDS011;10032;51.386;12.516;2022-11-20T11:38:13;14.93;;;8.90;;
19747;SDS011;10032;51.386;12.516;2022-11-20T11:40:43;12.47;;;7.10;;
19747;SDS011;10032;51.386;12.516;2022-11-20T11:43:49;13.03;;;8.30;;
19747;SDS011;10032;51.386;12.516;2022-11-20T11:46:23;16.03;;;8.40;;
19747;SDS011;10032;51.386;12.516;2022-11-20T12:05:05;12.37;;;7.33;;
19747;SDS011;10032;51.386;12.516;2022-11-20T12:16:11;11.80;;;6.83;;
19747;SDS011;10032;51.386;12.516;2022-11-20T12:18:39;13.63;;;7.40;;
19747;SDS011;10032;51.386;12.516;2022-11-20T12:29:11;11.83;;;6.83;;
19747;SDS011;10032;51.386;12.516;2022-11-20T12:37:24;14.27;;;7.53;;
19747;SDS011;10032;51.386;12.516;2022-11-20T12:39:58;11.17;;;6.73;;
19747;SDS011;10032;51.386;12.516;2022-11-20T12:42:57;17.33;;;6.90;;
19747;SDS011;10032;51.386;12.516;2022-11-20T12:45:58;10.97;;;6.97;;
19747;SDS011;10032;51.386;12.516;2022-11-20T12:48:38;12.30;;;6.40;;
19747;SDS011;10032;51.386;12.516;2022-11-20T12:54:00;11.40;;;7.20;;
19747;SDS011;10032;51.386;12.516;2022-11-20T12:56:50;13.70;;;8.40;;
19747;SDS011;10032;51.386;12.516;2022-11-20T12:59:28;10.70;;;6.10;;
19747;SDS011;10032;51.386;12.516;2022-11-20T13:02:29;11.40;;;6.87;;
19747;SDS011;10032;51.386;12.516;2022-11-20T13:13:52;9.67;;;6.33;;
19747;SDS011;10032;51.386;12.516;2022-11-20T13:18:55;11.60;;;7.17;;
19747;SDS011;10032;51.386;12.516;2022-11-20T13:21:23;11.40;;;7.87;;
19747;SDS011;10032;51.386;12.516;2022-11-20T13:24:07;25.80;;;14.40;;
19747;SDS011;10032;51.386;12.516;2022-11-20T13:26:45;12.73;;;7.37;;
19747;SDS011;10032;51.386;12.516;2022-11-20T13:29:12;12.33;;;7.33;;
19747;SDS011;10032;51.386;12.516;2022-11-20T13:31:46;12.67;;;7.77;;
19747;SDS011;10032;51.386;12.516;2022-11-20T13:34:26;16.63;;;10.87;;
19747;SDS011;10032;51.386;12.516;2022-11-20T13:36:53;13.30;;;8.10;;
19747;SDS011;10032;51.386;12.516;2022-11-20T13:39:24;18.13;;;10.03;;
19747;SDS011;10032;51.386;12.516;2022-11-20T13:41:54;10.43;;;7.10;;
19747;SDS011;10032;51.386;12.516;2022-11-20T13:45:03;12.67;;;7.90;;
19747;SDS011;10032;51.386;12.516;2022-11-20T13:47:27;11.50;;;7.27;;
19747;SDS011;10032;51.386;12.516;2022-11-20T13:49:58;11.77;;;7.03;;
19747;SDS011;10032;51.386;12.516;2022-11-20T13:52:43;13.87;;;8.57;;
19747;SDS011;10032;51.386;12.516;2022-11-20T13:55:37;12.43;;;7.47;;
19747;SDS011;10032;51.386;12.516;2022-11-20T14:00:57;10.70;;;6.27;;
19747;SDS011;10032;51.386;12.516;2022-11-20T14:03:23;9.57;;;6.20;;
19747;SDS011;10032;51.386;12.516;2022-11-20T14:05:51;12.40;;;7.37;;
19747;SDS011;10032;51.386;12.516;2022-11-20T14:08:31;12.43;;;6.77;;
19747;SDS011;10032;51.386;12.516;2022-11-20T14:11:03;13.53;;;7.17;;
19747;SDS011;10032;51.386;12.516;2022-11-20T14:13:38;11.07;;;6.73;;
19747;SDS011;10032;51.386;12.516;2022-11-20T14:16:04;11.30;;;6.37;;
19747;SDS011;10032;51.386;12.516;2022-11-20T14:18:29;11.83;;;6.03;;
19747;SDS011;10032;51.386;12.516;2022-11-20T14:20:55;11.13;;;6.00;;
19747;SDS011;10032;51.386;12.516;2022-11-20T14:23:25;8.50;;;6.00;;
19747;SDS011;10032;51.386;12.516;2022-11-20T14:25:51;10.00;;;5.63;;
19747;SDS011;10032;51.386;12.516;2022-11-20T14:28:20;9.07;;;5.97;;
19747;SDS011;10032;51.386;12.516;2022-11-20T14:30:50;15.93;;;9.80;;
19747;SDS011;10032;51.386;12.516;2022-11-20T14:33:17;10.00;;;6.70;;
19747;SDS011;10032;51.386;12.516;2022-11-20T14:35:44;9.07;;;6.17;;
19747;SDS011;10032;51.386;12.516;2022-11-20T14:38:13;10.87;;;6.37;;
19747;SDS011;10032;51.386;12.516;2022-11-20T14:40:40;11.13;;;6.80;;
19747;SDS011;10032;51.386;12.516;2022-11-20T14:45:48;9.90;;;6.70;;
19747;SDS011;10032;51.386;12.516;2022-11-20T14:48:22;11.23;;;8.00;;
19747;SDS011;10032;51.386;12.516;2022-11-20T14:50:52;11.83;;;7.13;;
19747;SDS011;10032;51.386;12.516;2022-11-20T14:53:22;11.63;;;7.03;;
19747;SDS011;10032;51.386;12.516;2022-11-20T14:55:54;9.90;;;6.60;;
19747;SDS011;10032;51.386;12.516;2022-11-20T14:58:25;10.80;;;6.80;;
19747;SDS011;10032;51.386;12.516;2022-11-20T15:00:54;11.07;;;7.10;;
19747;SDS011;10032;51.386;12.516;2022-11-20T15:03:30;9.70;;;6.80;;
19747;SDS011;10032;51.386;12.516;2022-11-20T15:06:00;11.50;;;7.23;;
19747;SDS011;10032;51.386;12.516;2022-11-20T15:08:26;12.13;;;7.90;;
19747;SDS011;10032;51.386;12.516;2022-11-20T15:10:52;12.20;;;7.93;;
19747;SDS011;10032;51.386;12.516;2022-11-20T15:13:25;10.73;;;7.10;;
19747;SDS011;10032;51.386;12.516;2022-11-20T15:15:52;12.00;;;7.10;;
19747;SDS011;10032;51.386;12.516;2022-11-20T15:18:21;13.80;;;7.63;;
19747;SDS011;10032;51.386;12.516;2022-11-20T15:21:09;14.30;;;8.43;;
19747;SDS011;10032;51.386;12.516;2022-11-20T15:23:36;10.33;;;6.20;;
19747;SDS011;10032;51.386;12.516;2022-11-20T15:26:03;11.37;;;6.90;;
19747;SDS011;10032;51.386;12.516;2022-11-20T15:30:56;17.57;;;9.97;;
19747;SDS011;10032;51.386;12.516;2022-11-20T15:33:22;16.23;;;9.67;;
19747;SDS011;10032;51.386;12.516;2022-11-20T15:35:48;14.07;;;8.80;;
19747;SDS011;10032;51.386;12.516;2022-11-20T15:38:13;17.80;;;10.82;;
19747;SDS011;10032;51.386;12.516;2022-11-20T15:40:39;16.97;;;10.27;;
19747;SDS011;10032;51.386;12.516;2022-11-20T15:43:05;18.67;;;9.87;;
19747;SDS011;10032;51.386;12.516;2022-11-20T15:45:53;19.23;;;11.83;;
19747;SDS011;10032;51.386;12.516;2022-11-20T15:48:27;16.10;;;9.50;;
19747;SDS011;10032;51.386;12.516;2022-11-20T15:53:36;15.03;;;8.93;;
19747;SDS011;10032;51.386;12.516;2022-11-20T15:56:03;15.37;;;8.80;;
19747;SDS011;10032;51.386;12.516;2022-11-20T15:58:29;15.10;;;8.93;;
19747;SDS011;10032;51.386;12.516;2022-11-20T16:00:55;18.83;;;11.20;;
19747;SDS011;10032;51.386;12.516;2022-11-20T16:03:21;36.83;;;20.07;;
19747;SDS011;10032;51.386;12.516;2022-11-20T16:05:46;29.10;;;17.27;;
19747;SDS011;10032;51.386;12.516;2022-11-20T16:08:12;21.27;;;13.23;;
19747;SDS011;10032;51.386;12.516;2022-11-20T16:10:38;19.33;;;12.90;;
19747;SDS011;10032;51.386;12.516;2022-11-20T16:13:03;20.83;;;13.77;;
19747;SDS011;10032;51.386;12.516;2022-11-20T16:15:53;26.10;;;16.83;;
19747;SDS011;10032;51.386;12.516;2022-11-20T16:18:22;21.37;;;14.20;;
19747;SDS011;10032;51.386;12.516;2022-11-20T16:20:51;25.83;;;18.60;;
19747;SDS011;10032;51.386;12.516;2022-11-20T16:23:18;28.13;;;17.00;;